This is the latest recevied weather packets stored in our database for station/object W1SCW. If no packets are shown the sender has not sent any weather packets the latest 1 day(s).
| Time | Temp. | Humidity | Pressure | Rain* | Wind** | Luminosity | Snow |
|---|---|---|---|---|---|---|---|
| 1778045161 | 25° C | 92% | 1007.7 hPa | 0 mm | 0.89 m/s, 159° | 0 W/m² | - |
| 1778044859 | 25° C | 92% | 1007.6 hPa | 0 mm | 1.34 m/s, 179° | 0 W/m² | - |
| 1778044555 | 25° C | 92% | 1007.8 hPa | 0 mm | 0 m/s | 0 W/m² | - |
| 1778044252 | 25° C | 92% | 1007.8 hPa | 0 mm | 1.79 m/s, 173° | 0 W/m² | - |
| 1778043949 | 25° C | 92% | 1007.8 hPa | 0 mm | 1.79 m/s, 162° | 0 W/m² | - |
| 1778043647 | 25° C | 92% | 1007.6 hPa | 0 mm | 0.45 m/s, 214° | 0 W/m² | - |
| 1778043343 | 25° C | 92% | 1007.7 hPa | 0 mm | 1.79 m/s, 184° | 0 W/m² | - |
| 1778043040 | 25° C | 91% | 1007.7 hPa | 0 mm | 0.89 m/s, 163° | 0 W/m² | - |
| 1778042738 | 25° C | 91% | 1007.6 hPa | 0 mm | 2.24 m/s, 164° | 0 W/m² | - |
| 1778042434 | 25° C | 91% | 1007.6 hPa | 0 mm | 1.34 m/s, 163° | 0 W/m² | - |
| 1778042131 | 25° C | 91% | 1007.8 hPa | 0 mm | 1.79 m/s, 177° | 0 W/m² | - |
| 1778041830 | 25° C | 90% | 1007.8 hPa | 0 mm | 0.89 m/s, 169° | 0 W/m² | - |
| 1778041529 | 25.56° C | 90% | 1007.7 hPa | 0 mm | 0.89 m/s, 207° | 0 W/m² | - |
| 1778041226 | 25.56° C | 89% | 1007.7 hPa | 0 mm | 0.89 m/s, 194° | 0 W/m² | - |
| 1778040925 | 25.56° C | 89% | 1007.7 hPa | 0 mm | 0.45 m/s, 181° | 0 W/m² | - |
| 1778040621 | 25.56° C | 88% | 1007.6 hPa | 0 mm | 0.45 m/s, 146° | 0 W/m² | - |
| 1778040319 | 25.56° C | 88% | 1007.8 hPa | 0 mm | 1.79 m/s, 153° | 0 W/m² | - |
| 1778040015 | 25.56° C | 88% | 1007.5 hPa | 0 mm | 0.89 m/s, 188° | 0 W/m² | - |
| 1778039712 | 25.56° C | 88% | 1007.6 hPa | 0 mm | 1.79 m/s, 156° | 0 W/m² | - |
| 1778039408 | 25.56° C | 88% | 1007.4 hPa | 0 mm | 1.34 m/s, 196° | 0 W/m² | - |
| 1778039106 | 25.56° C | 87% | 1007.4 hPa | 0 mm | 2.24 m/s, 198° | 0 W/m² | - |
| 1778038803 | 25.56° C | 87% | 1007.5 hPa | 0 mm | 2.24 m/s, 190° | 0 W/m² | - |
| 1778038500 | 25.56° C | 87% | 1007.5 hPa | 0 mm | 1.79 m/s, 162° | 0 W/m² | - |
| 1778038197 | 25.56° C | 87% | 1007.4 hPa | 0 mm | 1.34 m/s, 176° | 0 W/m² | - |
| 1778037895 | 25.56° C | 87% | 1007.3 hPa | 0 mm | 0.89 m/s, 225° | 0 W/m² | - |
* Rain latest hour (hover to see other rain measurements)
** Current wind speed in m/s (hover to see current wind gust speed)